Time;durP1;ratioP1;P1;durP2;ratioP2;P2;SDS_P1;SDS_P2;PMS_P1;PMS_P2;Temp;Humidity;BMP_temperature;BMP_pressure;BME280_temperature;BME280_humidity;BME280_pressure;Samples;Min_cycle;Max_cycle;Signal;HPM_P1;HPM_P2
2021/03/04 00:02:53;;;;;;;26.90;16.50;;;;;;;;;;4958663;28;20641;-88
2021/03/04 00:05:57;;;;;;;27.27;16.00;;;;;;;;;;4994103;28;20547;-88
2021/03/04 00:09:02;;;;;;;27.93;15.13;;;;;;;;;;4963310;28;20611;-88
2021/03/04 00:12:07;;;;;;;29.80;17.07;;;;;;;;;;4963332;28;20617;-88
2021/03/04 00:15:12;;;;;;;27.70;15.93;;;;;;;;;;4978480;28;21229;-88
2021/03/04 00:18:17;;;;;;;27.63;15.43;;;;;;;;;;4971295;28;20550;-87
2021/03/04 00:21:21;;;;;;;26.30;15.00;;;;;;;;;;4982484;28;20545;-88
2021/03/04 00:24:25;;;;;;;27.00;14.77;;;;;;;;;;4980657;28;20618;-87
2021/03/04 00:27:29;;;;;;;31.53;15.77;;;;;;;;;;4984062;28;20594;-88
2021/03/04 00:30:33;;;;;;;29.53;15.50;;;;;;;;;;4952149;28;20547;-88
2021/03/04 00:33:37;;;;;;;24.70;15.60;;;;;;;;;;4952046;28;20625;-88
2021/03/04 00:36:41;;;;;;;25.67;15.10;;;;;;;;;;4963029;28;20614;-87
2021/03/04 00:39:46;;;;;;;28.30;14.90;;;;;;;;;;4979475;28;20593;-88
2021/03/04 00:42:50;;;;;;;29.00;16.17;;;;;;;;;;4993397;28;20629;-88
2021/03/04 00:45:54;;;;;;;26.57;16.17;;;;;;;;;;4993141;28;20549;-88
2021/03/04 00:48:58;;;;;;;24.90;15.47;;;;;;;;;;4982197;28;20546;-88
2021/03/04 00:52:02;;;;;;;27.20;15.77;;;;;;;;;;4971065;28;20649;-87
2021/03/04 00:55:07;;;;;;;27.63;16.07;;;;;;;;;;4982277;28;20553;-87
2021/03/04 00:58:11;;;;;;;29.67;16.43;;;;;;;;;;4982176;28;20554;-88
2021/03/04 01:01:16;;;;;;;28.10;16.37;;;;;;;;;;4981731;28;20917;-88
2021/03/04 01:04:20;;;;;;;26.80;15.80;;;;;;;;;;4982397;28;20545;-88
2021/03/04 01:07:24;;;;;;;28.07;15.73;;;;;;;;;;4970812;28;20950;-87
2021/03/04 01:10:38;;;;;;;24.57;15.37;;;;;;;;;;4962492;28;20926;-88
2021/03/04 01:13:43;;;;;;;30.47;15.77;;;;;;;;;;4973461;28;21193;-88
2021/03/04 01:16:47;;;;;;;25.73;14.93;;;;;;;;;;4951535;28;20610;-88
2021/03/04 01:19:51;;;;;;;30.37;14.73;;;;;;;;;;4951910;28;20569;-88
2021/03/04 01:22:56;;;;;;;23.67;14.20;;;;;;;;;;4952048;28;20968;-88
2021/03/04 01:26:00;;;;;;;23.57;14.47;;;;;;;;;;4951676;28;20883;-88
2021/03/04 01:29:04;;;;;;;24.63;14.70;;;;;;;;;;4973495;28;20555;-88
2021/03/04 01:32:08;;;;;;;24.27;14.97;;;;;;;;;;4984672;28;20630;-87
2021/03/04 01:35:13;;;;;;;30.20;16.93;;;;;;;;;;4973333;28;20566;-88
2021/03/04 01:38:17;;;;;;;27.37;16.50;;;;;;;;;;4962338;28;20546;-88
2021/03/04 01:41:21;;;;;;;28.00;15.40;;;;;;;;;;4977275;28;20547;-88
2021/03/04 01:44:25;;;;;;;32.43;17.23;;;;;;;;;;4987769;28;20605;-88
2021/03/04 01:47:30;;;;;;;32.33;17.27;;;;;;;;;;4954385;28;20601;-88
2021/03/04 01:50:34;;;;;;;30.70;17.93;;;;;;;;;;4954630;28;20902;-88
2021/03/04 01:53:38;;;;;;;28.00;15.57;;;;;;;;;;4976234;28;21024;-87
2021/03/04 01:56:42;;;;;;;29.67;16.77;;;;;;;;;;4965084;28;21230;-88
2021/03/04 01:59:47;;;;;;;27.43;15.33;;;;;;;;;;4954501;28;20550;-88
2021/03/04 02:02:51;;;;;;;26.50;15.97;;;;;;;;;;4965210;28;20626;-88
2021/03/04 02:05:55;;;;;;;24.90;14.53;;;;;;;;;;4976164;28;20598;-88
2021/03/04 02:09:02;;;;;;;27.43;14.67;;;;;;;;;;4957764;28;20581;-88
2021/03/04 02:12:17;;;;;;;25.80;14.33;;;;;;;;;;4973653;28;20625;-88
2021/03/04 02:15:37;;;;;;;22.27;13.80;;;;;;;;;;4995616;28;20890;-88
2021/03/04 02:18:48;;;;;;;24.17;14.30;;;;;;;;;;4984426;28;20566;-88
2021/03/04 02:22:01;;;;;;;25.73;14.37;;;;;;;;;;4995537;28;20886;-87
2021/03/04 02:25:06;;;;;;;23.73;14.77;;;;;;;;;;4984234;28;20554;-88
2021/03/04 02:28:11;;;;;;;27.73;15.03;;;;;;;;;;4995438;28;20534;-88
2021/03/04 02:31:16;;;;;;;26.00;14.40;;;;;;;;;;4972890;28;20546;-88
2021/03/04 02:34:24;;;;;;;24.10;13.93;;;;;;;;;;4983895;28;20565;-88
2021/03/04 02:37:30;;;;;;;25.43;13.20;;;;;;;;;;4973163;28;20707;-88
2021/03/04 02:40:37;;;;;;;21.90;13.17;;;;;;;;;;4984100;28;20602;-88
2021/03/04 02:43:41;;;;;;;22.43;13.53;;;;;;;;;;4972728;28;20644;-88
2021/03/04 02:46:46;;;;;;;30.20;14.57;;;;;;;;;;4975266;28;20609;-87
2021/03/04 02:49:51;;;;;;;23.13;14.73;;;;;;;;;;4953261;28;20602;-88
2021/03/04 02:52:55;;;;;;;22.17;13.23;;;;;;;;;;4964070;28;20646;-88
2021/03/04 02:56:01;;;;;;;27.03;13.90;;;;;;;;;;4964760;28;20605;-88
2021/03/04 02:59:07;;;;;;;21.33;14.00;;;;;;;;;;4964408;28;20558;-88
2021/03/04 03:02:13;;;;;;;22.50;13.67;;;;;;;;;;4971553;28;20661;-88
2021/03/04 03:05:19;;;;;;;23.27;14.37;;;;;;;;;;4964357;28;20558;-88
2021/03/04 03:08:24;;;;;;;22.37;14.37;;;;;;;;;;4964008;28;21081;-88
2021/03/04 03:11:30;;;;;;;27.57;15.70;;;;;;;;;;4976391;28;20898;-88
2021/03/04 03:14:34;;;;;;;24.10;14.63;;;;;;;;;;4963986;28;20601;-88
2021/03/04 03:17:38;;;;;;;33.83;15.83;;;;;;;;;;4974667;28;20661;-88
2021/03/04 03:20:43;;;;;;;24.97;14.93;;;;;;;;;;4963663;28;20594;-88
2021/03/04 03:23:47;;;;;;;25.63;14.40;;;;;;;;;;4953409;28;20625;-88
2021/03/04 03:26:51;;;;;;;25.00;14.87;;;;;;;;;;4963882;28;20539;-88
2021/03/04 03:29:55;;;;;;;27.47;15.70;;;;;;;;;;4963626;28;20547;-88
2021/03/04 03:33:06;;;;;;;22.87;15.60;;;;;;;;;;4963758;28;20625;-88
2021/03/04 03:36:11;;;;;;;29.10;16.30;;;;;;;;;;4952702;28;20965;-88
2021/03/04 03:39:15;;;;;;;26.40;15.50;;;;;;;;;;4974721;28;20547;-88
2021/03/04 03:42:20;;;;;;;25.83;15.47;;;;;;;;;;4952777;28;20618;-88
2021/03/04 03:45:30;;;;;;;27.60;15.20;;;;;;;;;;4974387;28;21085;-88
2021/03/04 03:48:35;;;;;;;29.07;15.47;;;;;;;;;;4963827;28;20926;-88
2021/03/04 03:51:39;;;;;;;28.67;15.70;;;;;;;;;;4963402;28;21156;-87
2021/03/04 03:54:44;;;;;;;29.03;15.87;;;;;;;;;;4974856;28;20598;-87
2021/03/04 03:57:49;;;;;;;29.07;16.40;;;;;;;;;;4974679;28;20606;-87
2021/03/04 04:00:57;;;;;;;25.73;15.13;;;;;;;;;;4985560;28;20182;-88
2021/03/04 04:04:02;;;;;;;28.07;15.87;;;;;;;;;;4964044;28;20561;-88
2021/03/04 04:07:07;;;;;;;26.70;15.63;;;;;;;;;;4971685;28;20542;-88
2021/03/04 04:10:12;;;;;;;28.13;15.30;;;;;;;;;;4971271;28;20593;-88
2021/03/04 04:13:18;;;;;;;26.77;15.33;;;;;;;;;;4971377;28;20640;-87
2021/03/04 04:16:23;;;;;;;28.13;15.70;;;;;;;;;;4963561;28;21022;-87
2021/03/04 04:19:27;;;;;;;26.67;16.50;;;;;;;;;;4987672;28;20625;-88
2021/03/04 04:22:31;;;;;;;30.97;15.47;;;;;;;;;;4970803;28;20646;-88
2021/03/04 04:25:46;;;;;;;25.40;14.77;;;;;;;;;;4982521;28;20507;-88
2021/03/04 04:28:52;;;;;;;29.50;16.57;;;;;;;;;;4971148;28;20921;-88
2021/03/04 04:31:56;;;;;;;26.40;15.27;;;;;;;;;;4971278;28;21027;-87
2021/03/04 04:35:01;;;;;;;27.57;15.73;;;;;;;;;;4971314;28;20198;-88
2021/03/04 04:38:05;;;;;;;24.03;15.80;;;;;;;;;;4981986;28;20221;-87
2021/03/04 04:41:09;;;;;;;27.80;16.60;;;;;;;;;;4982141;28;20611;-88
2021/03/04 04:44:13;;;;;;;23.70;15.00;;;;;;;;;;4982530;28;21146;-87
2021/03/04 04:47:17;;;;;;;23.57;15.07;;;;;;;;;;4970822;28;20542;-87
2021/03/04 04:50:22;;;;;;;26.50;15.47;;;;;;;;;;4971078;28;20557;-88
2021/03/04 04:53:25;;;;;;;41.93;16.50;;;;;;;;;;4970525;28;21005;-88
2021/03/04 04:56:30;;;;;;;24.47;15.00;;;;;;;;;;4962212;28;20602;-87
2021/03/04 04:59:34;;;;;;;25.03;15.23;;;;;;;;;;4977592;28;20589;-87
2021/03/04 05:02:38;;;;;;;22.40;14.77;;;;;;;;;;4993219;28;20621;-88
2021/03/04 05:05:43;;;;;;;26.70;14.73;;;;;;;;;;4970749;28;20931;-88
2021/03/04 05:08:47;;;;;;;27.10;14.87;;;;;;;;;;4981462;28;20604;-88
2021/03/04 05:11:52;;;;;;;26.27;14.97;;;;;;;;;;4970731;28;20537;-88
2021/03/04 05:14:56;;;;;;;26.40;14.40;;;;;;;;;;4974442;28;20557;-88
2021/03/04 05:18:00;;;;;;;25.47;14.30;;;;;;;;;;4985480;28;20593;-88
2021/03/04 05:21:05;;;;;;;28.43;14.33;;;;;;;;;;4973213;28;20599;-88
2021/03/04 05:24:10;;;;;;;26.17;14.17;;;;;;;;;;4954784;28;20614;-88
2021/03/04 05:27:14;;;;;;;22.23;14.27;;;;;;;;;;4954960;28;20672;-88
2021/03/04 05:30:18;;;;;;;25.03;13.97;;;;;;;;;;5008511;23;21074;-72
2021/03/04 05:33:22;;;;;;;26.17;16.07;;;;;;;;;;4975763;28;20680;-73
2021/03/04 05:36:26;;;;;;;32.17;15.53;;;;;;;;;;4965779;28;20587;-73
2021/03/04 05:39:31;;;;;;;27.13;15.50;;;;;;;;;;4959203;28;20602;-73
2021/03/04 05:42:36;;;;;;;28.17;15.37;;;;;;;;;;4966046;28;20639;-73
2021/03/04 05:45:41;;;;;;;31.20;15.23;;;;;;;;;;4961936;28;20618;-72
2021/03/04 05:48:48;;;;;;;25.23;15.43;;;;;;;;;;4976787;28;21231;-72
2021/03/04 05:51:55;;;;;;;24.23;14.37;;;;;;;;;;4970004;28;20591;-72
2021/03/04 05:55:01;;;;;;;21.43;14.93;;;;;;;;;;4969731;28;20597;-72
2021/03/04 05:58:05;;;;;;;26.37;15.47;;;;;;;;;;4977153;28;20590;-72
2021/03/04 06:01:11;;;;;;;24.50;14.47;;;;;;;;;;4975039;28;20629;-73
2021/03/04 06:04:16;;;;;;;25.60;15.43;;;;;;;;;;4975378;28;20589;-73
2021/03/04 06:07:20;;;;;;;32.30;18.97;;;;;;;;;;4971609;28;20194;-73
2021/03/04 06:10:24;;;;;;;27.83;16.00;;;;;;;;;;4973999;28;21222;-73
2021/03/04 06:13:29;;;;;;;29.63;16.63;;;;;;;;;;4976622;28;20601;-73
2021/03/04 06:16:34;;;;;;;25.03;14.67;;;;;;;;;;4969313;28;20586;-73
2021/03/04 06:19:38;;;;;;;26.40;14.50;;;;;;;;;;4956986;29;20603;-72
2021/03/04 06:22:46;;;;;;;24.00;14.27;;;;;;;;;;4967977;28;20633;-72
2021/03/04 06:25:50;;;;;;;24.00;13.57;;;;;;;;;;4975423;28;20195;-72
2021/03/04 06:28:55;;;;;;;23.67;13.33;;;;;;;;;;4976109;28;20614;-73
2021/03/04 06:32:02;;;;;;;23.10;13.53;;;;;;;;;;4975996;28;20190;-72
2021/03/04 06:35:10;;;;;;;22.13;12.23;;;;;;;;;;4975807;28;20195;-73
2021/03/04 06:38:19;;;;;;;20.77;12.70;;;;;;;;;;4974994;28;20626;-73
2021/03/04 06:41:24;;;;;;;23.43;12.60;;;;;;;;;;4974145;28;20697;-73
2021/03/04 06:44:37;;;;;;;20.27;12.37;;;;;;;;;;4956879;29;20543;-73
2021/03/04 06:47:43;;;;;;;20.37;12.27;;;;;;;;;;4967459;28;20191;-73
2021/03/04 06:50:49;;;;;;;24.53;13.13;;;;;;;;;;4986136;28;20223;-73
2021/03/04 06:53:53;;;;;;;21.53;12.73;;;;;;;;;;4975985;28;20535;-72
2021/03/04 06:57:08;;;;;;;19.20;11.13;;;;;;;;;;4975641;28;20642;-72
2021/03/04 07:00:19;;;;;;;23.03;11.53;;;;;;;;;;4969542;28;20564;-73
2021/03/04 07:03:36;;;;;;;21.03;11.47;;;;;;;;;;4963969;28;20557;-73
2021/03/04 07:06:45;;;;;;;20.33;11.97;;;;;;;;;;4974527;28;20532;-73
2021/03/04 07:09:50;;;;;;;20.40;11.73;;;;;;;;;;4974707;28;20222;-72
2021/03/04 07:12:57;;;;;;;20.97;12.23;;;;;;;;;;4975472;28;20179;-72
2021/03/04 07:16:07;;;;;;;22.37;12.67;;;;;;;;;;4974923;28;20203;-73
2021/03/04 07:19:13;;;;;;;20.17;11.87;;;;;;;;;;4971590;28;20685;-72
2021/03/04 07:22:19;;;;;;;20.43;10.97;;;;;;;;;;4975604;28;20183;-72
2021/03/04 07:25:22;;;;;;;20.87;11.23;;;;;;;;;;4971843;28;20195;-72
2021/03/04 07:28:28;;;;;;;21.43;11.70;;;;;;;;;;4969951;28;20265;-73
2021/03/04 07:31:33;;;;;;;22.80;13.80;;;;;;;;;;4975604;28;20218;-72
2021/03/04 07:34:39;;;;;;;21.30;12.53;;;;;;;;;;4975068;28;20195;-73
2021/03/04 07:37:44;;;;;;;21.20;11.63;;;;;;;;;;4971911;28;20215;-73
2021/03/04 07:40:59;;;;;;;23.57;14.60;;;;;;;;;;4974713;28;20226;-73
2021/03/04 07:44:04;;;;;;;25.03;15.03;;;;;;;;;;4974758;28;20183;-73
2021/03/04 07:47:09;;;;;;;95.97;45.23;;;;;;;;;;4974813;28;20194;-72
2021/03/04 07:50:26;;;;;;;115.97;51.67;;;;;;;;;;4974804;28;20210;-72
2021/03/04 07:53:34;;;;;;;89.50;44.70;;;;;;;;;;4976738;28;20202;-73
2021/03/04 07:56:38;;;;;;;80.87;41.37;;;;;;;;;;4961334;28;20183;-73
2021/03/04 07:59:52;;;;;;;49.00;26.80;;;;;;;;;;4973875;28;20211;-73
2021/03/04 08:03:02;;;;;;;25.80;17.27;;;;;;;;;;4974371;28;20215;-73
2021/03/04 08:06:06;;;;;;;26.97;16.40;;;;;;;;;;4974844;28;20191;-72
2021/03/04 08:09:10;;;;;;;25.60;14.53;;;;;;;;;;4954708;29;20179;-73
2021/03/04 08:12:15;;;;;;;28.63;15.83;;;;;;;;;;4955079;29;20183;-72
2021/03/04 08:15:22;;;;;;;23.13;12.47;;;;;;;;;;4955457;29;20187;-72
2021/03/04 08:18:27;;;;;;;19.60;11.97;;;;;;;;;;4974000;28;20222;-73
2021/03/04 08:21:31;;;;;;;19.60;11.03;;;;;;;;;;4955128;29;20223;-72
2021/03/04 08:24:38;;;;;;;19.47;11.60;;;;;;;;;;4992574;28;20206;-72
2021/03/04 08:27:42;;;;;;;19.77;12.10;;;;;;;;;;4974641;28;20652;-72
2021/03/04 08:30:46;;;;;;;19.43;11.07;;;;;;;;;;4974128;28;20249;-72
2021/03/04 08:33:55;;;;;;;21.70;10.60;;;;;;;;;;4974390;28;20186;-72
2021/03/04 08:36:59;;;;;;;19.33;11.13;;;;;;;;;;4974463;28;20535;-72
2021/03/04 08:40:04;;;;;;;18.50;11.23;;;;;;;;;;4984639;28;20206;-72
2021/03/04 08:43:12;;;;;;;17.77;11.37;;;;;;;;;;4974147;28;20203;-72
2021/03/04 08:46:18;;;;;;;21.97;10.97;;;;;;;;;;4973396;28;20187;-73
2021/03/04 08:49:23;;;;;;;20.40;10.73;;;;;;;;;;4968651;28;20199;-72
2021/03/04 08:52:28;;;;;;;17.87;10.47;;;;;;;;;;4961304;28;20179;-72
2021/03/04 08:55:35;;;;;;;20.73;11.37;;;;;;;;;;4998021;28;20541;-73
2021/03/04 08:58:42;;;;;;;20.90;11.67;;;;;;;;;;4983800;28;20566;-73
2021/03/04 09:01:46;;;;;;;20.80;10.20;;;;;;;;;;4977337;28;20190;-73
2021/03/04 09:04:50;;;;;;;18.87;11.03;;;;;;;;;;4978129;28;20183;-73
2021/03/04 09:07:54;;;;;;;17.57;10.50;;;;;;;;;;4978087;28;20530;-72
2021/03/04 09:10:59;;;;;;;19.63;11.30;;;;;;;;;;4988127;28;20226;-72
2021/03/04 09:14:07;;;;;;;18.00;10.93;;;;;;;;;;4976730;28;20179;-73
2021/03/04 09:17:11;;;;;;;23.20;12.27;;;;;;;;;;4977394;28;20530;-72
2021/03/04 09:20:16;;;;;;;18.83;10.73;;;;;;;;;;4988204;28;20732;-72
2021/03/04 09:23:24;;;;;;;17.80;9.87;;;;;;;;;;4977745;28;20187;-72
2021/03/04 09:26:32;;;;;;;20.83;13.00;;;;;;;;;;4977211;28;20191;-72
2021/03/04 09:29:41;;;;;;;20.83;11.93;;;;;;;;;;4976577;28;20234;-72
2021/03/04 09:32:45;;;;;;;21.70;11.53;;;;;;;;;;4977566;28;20201;-73
2021/03/04 09:35:54;;;;;;;20.53;11.13;;;;;;;;;;4977285;28;20190;-72
2021/03/04 09:38:58;;;;;;;25.53;14.20;;;;;;;;;;4977325;28;20233;-72
2021/03/04 09:42:03;;;;;;;21.93;10.50;;;;;;;;;;4977457;28;20666;-72
2021/03/04 09:45:09;;;;;;;20.23;10.77;;;;;;;;;;4977406;28;20559;-72
2021/03/04 09:48:14;;;;;;;21.43;11.20;;;;;;;;;;4977188;28;20538;-72
2021/03/04 09:51:19;;;;;;;18.87;10.13;;;;;;;;;;4976950;28;20226;-72
2021/03/04 09:54:28;;;;;;;17.43;10.60;;;;;;;;;;4977071;28;20194;-73
2021/03/04 09:57:33;;;;;;;22.00;10.63;;;;;;;;;;4977169;28;20182;-72
2021/03/04 10:00:37;;;;;;;25.80;14.50;;;;;;;;;;4975969;28;20213;-72
2021/03/04 10:03:41;;;;;;;21.07;10.63;;;;;;;;;;4976745;28;20222;-72
2021/03/04 10:06:45;;;;;;;20.40;11.20;;;;;;;;;;4976710;28;20190;-72
2021/03/04 10:09:50;;;;;;;21.13;11.97;;;;;;;;;;4977860;28;20221;-72
2021/03/04 10:12:56;;;;;;;19.77;10.60;;;;;;;;;;4970495;28;20194;-72
2021/03/04 10:16:11;;;;;;;23.70;12.17;;;;;;;;;;4975811;28;20186;-72
2021/03/04 10:19:15;;;;;;;26.00;11.73;;;;;;;;;;4975542;28;20709;-72
2021/03/04 10:22:19;;;;;;;19.20;11.53;;;;;;;;;;4976698;28;20190;-72
2021/03/04 10:25:25;;;;;;;20.97;11.43;;;;;;;;;;4976403;28;20181;-72
2021/03/04 10:28:29;;;;;;;21.43;11.97;;;;;;;;;;4976477;28;20530;-73
2021/03/04 10:31:33;;;;;;;21.37;11.07;;;;;;;;;;4976202;28;20593;-72
2021/03/04 10:34:37;;;;;;;32.57;16.43;;;;;;;;;;4975475;28;20202;-73
2021/03/04 10:37:43;;;;;;;22.50;15.00;;;;;;;;;;4986780;28;20649;-72
2021/03/04 10:40:47;;;;;;;18.97;12.67;;;;;;;;;;4975840;28;20225;-73
2021/03/04 10:43:52;;;;;;;25.77;12.63;;;;;;;;;;4976160;28;20194;-73
2021/03/04 10:46:56;;;;;;;21.80;12.33;;;;;;;;;;4975277;28;20198;-73
2021/03/04 10:50:00;;;;;;;24.50;13.50;;;;;;;;;;4975568;28;20222;-72
2021/03/04 10:53:04;;;;;;;20.83;12.53;;;;;;;;;;4975371;28;20190;-72
2021/03/04 10:56:08;;;;;;;23.00;12.73;;;;;;;;;;4961833;28;20194;-72
2021/03/04 10:59:13;;;;;;;24.70;15.20;;;;;;;;;;4985979;28;20594;-72
2021/03/04 11:02:17;;;;;;;21.30;13.60;;;;;;;;;;4975589;28;20700;-72
2021/03/04 11:05:21;;;;;;;25.90;13.53;;;;;;;;;;4973196;28;20672;-73
2021/03/04 11:08:25;;;;;;;20.13;12.73;;;;;;;;;;4963195;28;20194;-73
2021/03/04 11:11:30;;;;;;;27.00;14.53;;;;;;;;;;4974549;28;20719;-72
2021/03/04 11:14:35;;;;;;;23.17;15.37;;;;;;;;;;4963228;28;20206;-72
2021/03/04 11:17:39;;;;;;;23.63;12.57;;;;;;;;;;4956387;29;20195;-72
2021/03/04 11:20:44;;;;;;;21.37;12.63;;;;;;;;;;4966097;28;20236;-74
2021/03/04 11:23:48;;;;;;;18.73;11.67;;;;;;;;;;4985645;28;20190;-74
2021/03/04 11:26:52;;;;;;;20.67;10.67;;;;;;;;;;4975302;28;20186;-75
2021/03/04 11:29:57;;;;;;;20.67;11.20;;;;;;;;;;4974339;28;20229;-75
2021/03/04 11:33:03;;;;;;;20.97;11.90;;;;;;;;;;4974968;28;20202;-75
2021/03/04 11:36:08;;;;;;;20.17;12.40;;;;;;;;;;4975025;28;20266;-75
2021/03/04 11:39:12;;;;;;;23.30;11.20;;;;;;;;;;4974759;28;20221;-75
2021/03/04 11:42:17;;;;;;;26.33;11.10;;;;;;;;;;4963442;28;20198;-75
2021/03/04 11:45:21;;;;;;;19.73;11.03;;;;;;;;;;4974891;28;20668;-75
2021/03/04 11:48:25;;;;;;;14.50;9.20;;;;;;;;;;4961006;28;20206;-75
2021/03/04 11:51:29;;;;;;;18.77;10.20;;;;;;;;;;4975776;28;20214;-74
2021/03/04 11:54:33;;;;;;;18.50;10.70;;;;;;;;;;4974631;28;20186;-74
2021/03/04 11:57:37;;;;;;;19.80;10.80;;;;;;;;;;4974191;28;20194;-75
2021/03/04 12:00:42;;;;;;;23.47;11.57;;;;;;;;;;4973783;28;20241;-74
2021/03/04 12:03:46;;;;;;;16.67;10.10;;;;;;;;;;4984975;28;20191;-74
2021/03/04 12:06:50;;;;;;;19.07;10.47;;;;;;;;;;5012964;23;20236;-75
2021/03/04 12:09:55;;;;;;;19.63;10.27;;;;;;;;;;5018597;28;20219;-75
2021/03/04 12:12:59;;;;;;;15.63;9.70;;;;;;;;;;5029262;28;20207;-75
2021/03/04 12:16:08;;;;;;;15.63;10.03;;;;;;;;;;5032806;28;20192;-75
2021/03/04 12:19:13;;;;;;;18.20;10.37;;;;;;;;;;5030112;28;20229;-74
2021/03/04 12:22:17;;;;;;;16.47;10.00;;;;;;;;;;5013664;28;20209;-75
2021/03/04 12:25:22;;;;;;;17.50;9.37;;;;;;;;;;5032211;28;20188;-75
2021/03/04 12:28:26;;;;;;;15.97;10.40;;;;;;;;;;5012779;28;20185;-75
2021/03/04 12:31:31;;;;;;;21.50;10.03;;;;;;;;;;5013673;28;20224;-75
2021/03/04 12:34:35;;;;;;;15.33;9.33;;;;;;;;;;5013236;28;20204;-75
2021/03/04 12:37:41;;;;;;;16.37;10.00;;;;;;;;;;5026302;28;20196;-73
2021/03/04 12:40:45;;;;;;;15.53;9.27;;;;;;;;;;5023566;28;20235;-73
2021/03/04 12:43:49;;;;;;;19.37;10.10;;;;;;;;;;5017107;28;20197;-73
2021/03/04 12:46:53;;;;;;;15.57;9.37;;;;;;;;;;5018764;28;20199;-73
2021/03/04 12:49:59;;;;;;;16.30;9.27;;;;;;;;;;5032304;28;20212;-73
2021/03/04 12:53:06;;;;;;;47.93;10.73;;;;;;;;;;5012781;28;20182;-73
2021/03/04 12:56:11;;;;;;;18.77;9.83;;;;;;;;;;5002618;28;20184;-73
2021/03/04 12:59:15;;;;;;;15.77;8.53;;;;;;;;;;5030212;28;20683;-73
2021/03/04 13:02:20;;;;;;;16.07;7.70;;;;;;;;;;5031290;28;20201;-73
2021/03/04 13:05:25;;;;;;;15.43;7.90;;;;;;;;;;5025328;28;20181;-74
2021/03/04 13:08:29;;;;;;;15.93;8.50;;;;;;;;;;5016482;28;20192;-75
2021/03/04 13:11:41;;;;;;;20.03;8.80;;;;;;;;;;5028195;28;20556;-74
2021/03/04 13:14:46;;;;;;;21.53;9.00;;;;;;;;;;5020979;28;20194;-74
2021/03/04 13:17:51;;;;;;;17.50;8.60;;;;;;;;;;5016133;28;20639;-73
2021/03/04 13:21:03;;;;;;;16.77;9.00;;;;;;;;;;5032838;28;20224;-73
2021/03/04 13:24:07;;;;;;;20.77;8.43;;;;;;;;;;5012148;28;20558;-74
2021/03/04 13:27:12;;;;;;;17.23;7.70;;;;;;;;;;5012506;28;20182;-74
2021/03/04 13:30:17;;;;;;;17.63;7.77;;;;;;;;;;5023853;28;20212;-74
2021/03/04 13:33:21;;;;;;;16.40;8.10;;;;;;;;;;5012092;28;20212;-74
2021/03/04 13:36:25;;;;;;;14.60;8.03;;;;;;;;;;5017560;28;20201;-74
2021/03/04 13:39:30;;;;;;;14.67;7.67;;;;;;;;;;4994069;28;20217;-73
2021/03/04 13:42:34;;;;;;;15.93;8.13;;;;;;;;;;5024501;28;20192;-73
2021/03/04 13:45:40;;;;;;;18.60;10.70;;;;;;;;;;5026195;28;20184;-74
2021/03/04 13:48:44;;;;;;;18.73;7.50;;;;;;;;;;5036527;28;20259;-73
2021/03/04 13:51:48;;;;;;;19.93;7.43;;;;;;;;;;5023439;28;20672;-74
2021/03/04 13:54:52;;;;;;;24.10;7.83;;;;;;;;;;5037626;28;20185;-74
2021/03/04 13:57:56;;;;;;;19.30;8.13;;;;;;;;;;5027647;28;20200;-75
2021/03/04 14:01:01;;;;;;;13.60;7.50;;;;;;;;;;5023550;28;20718;-74
2021/03/04 14:04:05;;;;;;;17.70;8.63;;;;;;;;;;5036277;28;20188;-75
2021/03/04 14:07:09;;;;;;;26.73;8.73;;;;;;;;;;5035755;28;20535;-75
2021/03/04 14:10:14;;;;;;;16.43;8.10;;;;;;;;;;5035355;28;20208;-74
2021/03/04 14:13:18;;;;;;;15.33;8.20;;;;;;;;;;5017202;28;20201;-74
2021/03/04 14:16:24;;;;;;;19.50;9.07;;;;;;;;;;5019882;28;20189;-75
2021/03/04 14:19:28;;;;;;;14.80;8.43;;;;;;;;;;5023432;28;20177;-75
2021/03/04 14:22:32;;;;;;;19.20;8.90;;;;;;;;;;5024894;28;20201;-75
2021/03/04 14:25:36;;;;;;;16.40;8.27;;;;;;;;;;5015915;28;20185;-75
2021/03/04 14:28:40;;;;;;;19.53;9.10;;;;;;;;;;5016281;28;20549;-75
2021/03/04 14:31:44;;;;;;;18.20;9.00;;;;;;;;;;5014843;28;20177;-75
2021/03/04 14:34:48;;;;;;;15.37;8.73;;;;;;;;;;5015744;28;20186;-75
2021/03/04 14:37:52;;;;;;;19.73;9.27;;;;;;;;;;5016256;28;20185;-75
2021/03/04 14:40:56;;;;;;;26.83;9.40;;;;;;;;;;5014745;28;20225;-75
2021/03/04 14:44:01;;;;;;;60.40;10.43;;;;;;;;;;5014861;28;20186;-76
2021/03/04 14:47:05;;;;;;;26.40;8.83;;;;;;;;;;5003044;28;20667;-75
2021/03/04 14:50:09;;;;;;;17.87;8.70;;;;;;;;;;5015387;28;20209;-75
2021/03/04 14:53:13;;;;;;;18.50;8.20;;;;;;;;;;5014280;28;20173;-75
2021/03/04 14:56:18;;;;;;;15.70;8.93;;;;;;;;;;5019728;28;20161;-76
2021/03/04 14:59:22;;;;;;;25.00;8.67;;;;;;;;;;5015508;28;20185;-75
2021/03/04 15:02:27;;;;;;;101.90;12.87;;;;;;;;;;5015141;28;20181;-75
2021/03/04 15:05:31;;;;;;;15.77;8.73;;;;;;;;;;5014090;28;20767;-75
2021/03/04 15:08:36;;;;;;;16.43;8.07;;;;;;;;;;5014984;28;20525;-75
2021/03/04 15:11:40;;;;;;;16.20;8.37;;;;;;;;;;5015034;28;20177;-75
2021/03/04 15:14:45;;;;;;;15.37;8.60;;;;;;;;;;5014954;28;20182;-75
2021/03/04 15:17:54;;;;;;;27.53;9.20;;;;;;;;;;5014672;28;20181;-76
2021/03/04 15:20:58;;;;;;;17.80;8.80;;;;;;;;;;5003077;28;20225;-75
2021/03/04 15:24:05;;;;;;;16.83;8.63;;;;;;;;;;5002856;28;20201;-76
2021/03/04 15:27:09;;;;;;;21.17;8.17;;;;;;;;;;5014049;28;20182;-75
2021/03/04 15:30:14;;;;;;;14.93;8.37;;;;;;;;;;5013724;28;20213;-76
2021/03/04 15:33:19;;;;;;;21.67;9.23;;;;;;;;;;5014625;28;20201;-75
2021/03/04 15:36:24;;;;;;;17.63;8.10;;;;;;;;;;5013853;28;20185;-75
2021/03/04 15:39:28;;;;;;;53.93;11.90;;;;;;;;;;5013984;28;20545;-75
2021/03/04 15:42:35;;;;;;;19.30;8.40;;;;;;;;;;5002370;28;20188;-75
2021/03/04 15:45:40;;;;;;;20.83;8.13;;;;;;;;;;5002632;28;20186;-75
2021/03/04 15:48:45;;;;;;;23.47;10.03;;;;;;;;;;5013257;28;20186;-75
2021/03/04 15:51:49;;;;;;;30.10;16.23;;;;;;;;;;5013380;28;20177;-75
2021/03/04 15:54:53;;;;;;;21.07;11.43;;;;;;;;;;5025855;28;20567;-75
2021/03/04 15:57:58;;;;;;;22.73;10.17;;;;;;;;;;5033012;28;20196;-74
2021/03/04 16:01:02;;;;;;;24.13;11.07;;;;;;;;;;5032315;28;20583;-74
2021/03/04 16:04:10;;;;;;;24.93;9.97;;;;;;;;;;5020131;28;20204;-74
2021/03/04 16:07:15;;;;;;;21.83;10.50;;;;;;;;;;5020513;28;20212;-76
2021/03/04 16:10:21;;;;;;;22.13;11.00;;;;;;;;;;5005094;28;20224;-75
2021/03/04 16:13:26;;;;;;;23.60;10.87;;;;;;;;;;5028587;28;20298;-76
2021/03/04 16:16:30;;;;;;;19.67;10.50;;;;;;;;;;5032166;28;20208;-75
2021/03/04 16:19:35;;;;;;;23.53;10.93;;;;;;;;;;4995954;28;20300;-76
2021/03/04 16:22:41;;;;;;;24.43;12.03;;;;;;;;;;5032745;28;20200;-77
2021/03/04 16:25:47;;;;;;;18.97;10.00;;;;;;;;;;5012620;28;20208;-75
2021/03/04 16:28:51;;;;;;;45.40;24.60;;;;;;;;;;5001960;28;20198;-75
2021/03/04 16:31:58;;;;;;;23.37;12.70;;;;;;;;;;5014301;28;20192;-75
2021/03/04 16:35:05;;;;;;;20.43;10.07;;;;;;;;;;5013195;28;20540;-76
2021/03/04 16:38:10;;;;;;;30.47;16.73;;;;;;;;;;5014520;28;20200;-76
2021/03/04 16:41:17;;;;;;;36.17;20.50;;;;;;;;;;5024601;28;20235;-76
2021/03/04 16:44:21;;;;;;;47.00;28.03;;;;;;;;;;5013659;28;20216;-75
2021/03/04 16:47:29;;;;;;;65.57;36.73;;;;;;;;;;5025656;28;20543;-76
2021/03/04 16:50:35;;;;;;;32.43;18.73;;;;;;;;;;5022283;28;20216;-75
2021/03/04 16:53:40;;;;;;;25.40;11.73;;;;;;;;;;5032384;28;20191;-75
2021/03/04 16:56:45;;;;;;;19.17;9.90;;;;;;;;;;5019165;28;20207;-76
2021/03/04 16:59:51;;;;;;;18.67;8.03;;;;;;;;;;5032191;28;20221;-76
2021/03/04 17:02:57;;;;;;;22.07;8.97;;;;;;;;;;5031862;28;20562;-76
2021/03/04 17:06:03;;;;;;;18.17;9.37;;;;;;;;;;5023355;28;20669;-76
2021/03/04 17:09:09;;;;;;;17.20;8.87;;;;;;;;;;5003353;28;20205;-76
2021/03/04 17:12:13;;;;;;;21.73;10.60;;;;;;;;;;5016214;28;20178;-77
2021/03/04 17:15:18;;;;;;;20.60;10.60;;;;;;;;;;5026969;28;20210;-76
2021/03/04 17:18:22;;;;;;;18.27;9.77;;;;;;;;;;5019282;28;20188;-77
2021/03/04 17:21:26;;;;;;;18.10;10.07;;;;;;;;;;5015681;28;20696;-77
2021/03/04 17:24:31;;;;;;;23.00;9.70;;;;;;;;;;5016876;28;20197;-76
2021/03/04 17:27:35;;;;;;;19.27;9.33;;;;;;;;;;5017110;28;20177;-75
2021/03/04 17:30:41;;;;;;;17.17;9.30;;;;;;;;;;5016419;28;20570;-76
2021/03/04 17:33:45;;;;;;;17.73;8.87;;;;;;;;;;5016770;28;20193;-77
2021/03/04 17:36:49;;;;;;;20.87;9.77;;;;;;;;;;5032465;28;20643;-76
2021/03/04 17:39:53;;;;;;;21.57;9.63;;;;;;;;;;5036733;28;20580;-76
2021/03/04 17:42:57;;;;;;;19.67;9.90;;;;;;;;;;5036867;28;20620;-76
2021/03/04 17:46:03;;;;;;;20.93;9.87;;;;;;;;;;5025714;28;20201;-76
2021/03/04 17:49:08;;;;;;;19.90;9.63;;;;;;;;;;5016488;28;20185;-76
2021/03/04 17:52:13;;;;;;;17.87;9.87;;;;;;;;;;5020824;28;20667;-76
2021/03/04 17:55:17;;;;;;;19.30;10.33;;;;;;;;;;5036051;28;20196;-76
2021/03/04 17:58:22;;;;;;;23.97;9.87;;;;;;;;;;5032386;28;20190;-77
2021/03/04 18:01:27;;;;;;;23.93;11.07;;;;;;;;;;5015099;28;20676;-77